createdAt,value
2022-08-18T00:03:56.255Z,21.20
2022-08-18T00:09:06.732Z,21.20
2022-08-18T00:14:11.995Z,21.20
2022-08-18T00:19:43.700Z,21.10
2022-08-18T00:24:53.036Z,21.10
2022-08-18T00:29:57.133Z,21.10
2022-08-18T00:35:07.120Z,21.10
2022-08-18T00:40:13.798Z,21.10
2022-08-18T00:45:20.512Z,21.10
2022-08-18T00:50:31.664Z,21.10
2022-08-18T00:55:35.182Z,21.10
2022-08-18T01:00:38.560Z,21.10
2022-08-18T01:05:48.057Z,21.10
2022-08-18T01:10:51.138Z,21.00
2022-08-18T01:15:53.611Z,21.00
2022-08-18T01:21:04.888Z,21.00
2022-08-18T01:26:09.585Z,20.90
2022-08-18T01:31:28.738Z,20.90
2022-08-18T01:36:31.591Z,20.80
2022-08-18T01:41:35.654Z,20.80
2022-08-18T01:46:41.004Z,20.80
2022-08-18T01:51:43.438Z,20.80
2022-08-18T01:56:47.925Z,20.80
2022-08-18T02:01:53.439Z,20.90
2022-08-18T02:06:56.218Z,20.90
2022-08-18T02:12:01.396Z,21.00
2022-08-18T02:17:06.150Z,21.00
2022-08-18T02:22:10.423Z,21.00
2022-08-18T02:27:16.052Z,21.10
2022-08-18T02:32:18.632Z,21.10
2022-08-18T02:37:21.048Z,21.20
2022-08-18T02:42:24.906Z,21.20
2022-08-18T02:47:31.518Z,21.20
2022-08-18T02:52:36.476Z,21.30
2022-08-18T02:57:45.212Z,21.30
2022-08-18T03:02:48.096Z,21.30
2022-08-18T03:07:51.051Z,21.30
2022-08-18T03:12:55.108Z,21.40
2022-08-18T03:17:59.913Z,21.40
2022-08-18T03:23:09.566Z,21.50
2022-08-18T03:28:14.739Z,21.50
2022-08-18T03:33:17.182Z,21.60
2022-08-18T03:38:19.796Z,21.60
2022-08-18T03:43:51.087Z,21.60
2022-08-18T03:48:46.760Z,21.70
2022-08-18T03:53:50.253Z,21.80
2022-08-18T03:58:56.522Z,21.80
2022-08-18T04:04:01.609Z,21.80
2022-08-18T04:09:06.198Z,21.90
2022-08-18T04:14:10.499Z,21.80
2022-08-18T04:19:13.470Z,21.90
2022-08-18T04:24:16.232Z,21.90
2022-08-18T04:29:21.508Z,21.90
2022-08-18T04:34:24.429Z,21.90
2022-08-18T04:39:27.004Z,21.90
2022-08-18T04:44:31.121Z,22.00
2022-08-18T04:49:33.727Z,21.90
2022-08-18T04:54:38.424Z,22.00
2022-08-18T04:59:46.216Z,21.90
2022-08-18T05:04:49.165Z,22.00
2022-08-18T05:09:52.073Z,22.00
2022-08-18T05:14:56.254Z,22.00
2022-08-18T05:20:00.789Z,22.00
2022-08-18T05:25:04.711Z,22.10
2022-08-18T05:30:10.926Z,22.10
2022-08-18T05:35:17.980Z,22.10
2022-08-18T05:40:23.160Z,22.10
2022-08-18T05:45:28.149Z,22.10
2022-08-18T05:50:35.078Z,22.20
2022-08-18T05:55:45.924Z,22.20
2022-08-18T06:00:59.783Z,22.20
2022-08-18T06:06:07.679Z,22.20
2022-08-18T06:11:22.134Z,22.30
2022-08-18T06:16:39.512Z,22.30
2022-08-18T06:21:51.087Z,22.40
2022-08-18T06:27:00.935Z,22.40
2022-08-18T06:32:14.210Z,22.50
2022-08-18T06:37:24.134Z,22.50
2022-08-18T06:42:28.414Z,22.50
2022-08-18T06:47:43.356Z,22.60
2022-08-18T06:52:54.094Z,22.70
2022-08-18T06:57:59.355Z,22.70
2022-08-18T07:03:06.946Z,22.90
2022-08-18T07:08:16.074Z,23.00
2022-08-18T07:13:27.388Z,23.20
2022-08-18T07:18:31.477Z,23.30
2022-08-18T07:23:37.035Z,23.30
2022-08-18T07:28:42.820Z,23.50
2022-08-18T07:33:54.470Z,23.60
2022-08-18T07:39:04.106Z,23.80
2022-08-18T07:44:15.303Z,24.10
2022-08-18T07:49:22.481Z,24.60
2022-08-18T07:54:50.361Z,25.10
2022-08-18T08:00:02.157Z,25.50
2022-08-18T08:05:18.040Z,26.00
2022-08-18T08:10:32.265Z,26.60
2022-08-18T08:15:46.821Z,27.40
2022-08-18T08:20:55.412Z,27.80
2022-08-18T08:26:10.560Z,28.00
2022-08-18T08:31:36.991Z,27.90
2022-08-18T08:36:45.125Z,27.60
2022-08-18T08:41:54.019Z,27.40
2022-08-18T08:47:23.313Z,27.00
2022-08-18T08:52:35.128Z,26.70
2022-08-18T08:57:42.654Z,26.50
2022-08-18T09:02:59.892Z,26.20
2022-08-18T09:08:33.954Z,26.00
2022-08-18T09:13:54.911Z,25.80
2022-08-18T09:19:30.656Z,25.70
2022-08-18T09:24:45.300Z,25.60
2022-08-18T09:29:53.371Z,25.50
2022-08-18T09:35:07.470Z,25.50
2022-08-18T09:40:15.388Z,25.40
2022-08-18T09:45:53.344Z,25.30
2022-08-18T09:50:59.810Z,25.30
2022-08-18T09:56:05.781Z,25.30
2022-08-18T10:01:38.253Z,25.20
2022-08-18T10:12:33.088Z,25.00
2022-08-18T10:17:49.974Z,24.90
2022-08-18T10:22:53.743Z,25.00
2022-08-18T10:27:58.538Z,25.00
2022-08-18T10:33:15.215Z,25.10
2022-08-18T10:38:49.239Z,25.20
2022-08-18T10:43:57.819Z,25.20
2022-08-18T10:49:05.281Z,25.20
2022-08-18T10:54:18.389Z,25.30
2022-08-18T10:59:31.150Z,25.50
2022-08-18T11:04:59.273Z,25.60
2022-08-18T11:10:32.607Z,25.70
2022-08-18T11:15:57.728Z,25.90
2022-08-18T11:21:22.687Z,25.90
2022-08-18T11:26:30.785Z,25.90
2022-08-18T11:31:35.056Z,25.90
2022-08-18T11:36:41.032Z,25.80
2022-08-18T11:41:52.880Z,25.70
2022-08-18T11:47:12.603Z,25.60
2022-08-18T11:52:26.298Z,25.50
2022-08-18T11:57:50.963Z,25.60
2022-08-18T12:03:04.300Z,25.60
2022-08-18T12:08:50.511Z,25.70
2022-08-18T12:13:44.003Z,25.70
2022-08-18T12:18:50.707Z,25.70
2022-08-18T12:23:56.349Z,25.70
2022-08-18T12:29:01.569Z,25.70
2022-08-18T12:34:06.423Z,25.80
2022-08-18T12:39:16.792Z,25.80
2022-08-18T12:44:19.345Z,25.80
2022-08-18T12:49:25.407Z,25.90
2022-08-18T12:54:29.783Z,26.00
2022-08-18T12:59:37.486Z,26.10
2022-08-18T13:04:41.952Z,26.30
2022-08-18T13:09:53.272Z,26.30
2022-08-18T13:14:59.366Z,26.40
2022-08-18T13:20:07.784Z,26.30
2022-08-18T13:25:13.515Z,26.40
2022-08-18T13:30:35.911Z,26.60
2022-08-18T13:35:44.523Z,26.90
2022-08-18T13:40:48.056Z,27.20
2022-08-18T13:45:52.786Z,27.30
2022-08-18T13:51:01.889Z,27.40
2022-08-18T13:56:05.107Z,27.40
2022-08-18T14:01:41.990Z,27.40
2022-08-18T14:06:35.225Z,27.30
2022-08-18T14:11:38.469Z,27.30
2022-08-18T14:16:44.028Z,27.30
2022-08-18T14:21:51.000Z,27.20
2022-08-18T14:26:53.962Z,27.20
2022-08-18T14:31:57.557Z,27.10
2022-08-18T14:37:01.622Z,27.00
2022-08-18T14:42:04.530Z,27.00
2022-08-18T14:47:09.292Z,27.00
2022-08-18T14:52:15.474Z,27.10
2022-08-18T15:02:22.974Z,27.10
2022-08-18T15:07:27.239Z,27.20
2022-08-18T15:12:29.721Z,27.20
2022-08-18T15:17:35.336Z,27.10
2022-08-18T15:22:44.995Z,27.00
2022-08-18T15:27:52.407Z,26.90
2022-08-18T15:32:55.121Z,26.80
2022-08-18T15:37:59.309Z,26.70
2022-08-18T15:43:06.055Z,26.70
2022-08-18T15:48:13.612Z,26.70
2022-08-18T15:53:19.955Z,26.60
2022-08-18T15:58:26.723Z,26.60
2022-08-18T16:03:33.037Z,26.70
2022-08-18T16:08:38.567Z,26.70
2022-08-18T16:13:42.970Z,26.70
2022-08-18T16:18:47.359Z,26.60
2022-08-18T16:23:53.552Z,26.50
2022-08-18T16:28:57.538Z,26.40
2022-08-18T16:34:02.608Z,26.40
2022-08-18T16:39:06.774Z,26.20
2022-08-18T16:44:09.751Z,26.10
2022-08-18T16:49:12.783Z,26.00
2022-08-18T16:54:17.029Z,25.90
2022-08-18T16:59:19.764Z,25.80
2022-08-18T17:04:24.570Z,25.70
2022-08-18T17:09:28.870Z,25.60
2022-08-18T17:14:35.571Z,25.50
2022-08-18T17:19:38.186Z,25.40
2022-08-18T17:24:49.840Z,25.30
2022-08-18T17:30:00.470Z,25.20
2022-08-18T17:35:09.747Z,25.10
2022-08-18T17:40:24.132Z,25.00
2022-08-18T17:45:33.210Z,24.90
2022-08-18T17:50:41.149Z,24.70
2022-08-18T17:55:49.973Z,24.70
2022-08-18T18:00:52.605Z,24.60
2022-08-18T18:06:02.919Z,24.50
2022-08-18T18:11:12.403Z,24.40
2022-08-18T18:16:28.286Z,24.20
2022-08-18T18:22:00.761Z,24.20
2022-08-18T18:26:57.089Z,24.10
2022-08-18T18:32:02.796Z,24.00
2022-08-18T18:37:22.311Z,23.80
2022-08-18T18:42:29.572Z,23.70
2022-08-18T18:47:50.014Z,23.50
2022-08-18T18:53:06.304Z,23.40
2022-08-18T18:58:20.691Z,23.20
2022-08-18T19:03:32.204Z,23.10
2022-08-18T19:08:43.892Z,22.90
2022-08-18T19:13:54.532Z,22.70
2022-08-18T19:19:36.891Z,22.60
2022-08-18T19:24:26.737Z,22.30
2022-08-18T19:29:35.807Z,22.20
2022-08-18T19:34:52.577Z,22.00
2022-08-18T19:40:06.904Z,21.90
2022-08-18T19:45:25.355Z,21.70
2022-08-18T19:50:34.637Z,21.60
2022-08-18T19:55:50.346Z,21.40
2022-08-18T20:00:57.990Z,21.40
2022-08-18T20:06:34.311Z,21.20
2022-08-18T20:11:54.187Z,21.10
2022-08-18T20:17:15.563Z,21.00
2022-08-18T20:22:35.875Z,20.80
2022-08-18T20:27:40.667Z,20.80
2022-08-18T20:32:44.702Z,20.60
2022-08-18T20:37:47.422Z,20.50
2022-08-18T20:42:57.393Z,20.40
2022-08-18T20:48:32.629Z,20.40
2022-08-18T20:54:13.464Z,20.30
2022-08-18T20:59:20.607Z,20.20
2022-08-18T21:04:52.369Z,20.10
2022-08-18T21:09:59.722Z,20.00
2022-08-18T21:15:10.077Z,19.90
2022-08-18T21:20:16.529Z,19.80
2022-08-18T21:25:19.813Z,19.80
2022-08-18T21:30:25.198Z,19.70
2022-08-18T21:35:33.204Z,19.60
2022-08-18T21:40:39.905Z,19.50
2022-08-18T21:45:48.880Z,19.40
2022-08-18T21:50:57.973Z,19.40
2022-08-18T21:56:03.386Z,19.30
2022-08-18T22:01:13.063Z,19.20
2022-08-18T22:06:26.324Z,19.10
2022-08-18T22:11:47.329Z,19.10
2022-08-18T22:17:28.509Z,19.00
2022-08-18T22:22:35.211Z,18.90
2022-08-18T22:27:38.111Z,18.80
2022-08-18T22:32:40.592Z,18.80
2022-08-18T22:37:50.602Z,18.70
2022-08-18T22:42:53.834Z,18.70
2022-08-18T22:47:56.792Z,18.70
2022-08-18T22:53:00.936Z,18.60
2022-08-18T22:58:03.666Z,18.50
2022-08-18T23:03:07.956Z,18.50
2022-08-18T23:08:12.005Z,18.40
2022-08-18T23:13:14.526Z,18.30
2022-08-18T23:18:18.952Z,18.20
2022-08-18T23:23:23.760Z,18.10
2022-08-18T23:28:27.655Z,18.00
2022-08-18T23:33:30.201Z,17.90
2022-08-18T23:38:34.908Z,17.90
2022-08-18T23:43:37.405Z,17.90
2022-08-18T23:48:40.044Z,17.90
2022-08-18T23:53:44.039Z,17.90
2022-08-18T23:58:53.971Z,17.80
